sensor_id;sensor_type;location;lat;lon;timestamp;pressure;altitude;pressure_sealevel;temperature
68745;BMP180;66104;45.456;11.064;2023-02-25T00:02:52;99561.20;;;12.00
68745;BMP180;66104;45.456;11.064;2023-02-25T00:05:29;99556.20;;;11.92
68745;BMP180;66104;45.456;11.064;2023-02-25T00:08:07;99552.20;;;11.90
68745;BMP180;66104;45.456;11.064;2023-02-25T00:10:43;99544.60;;;11.90
68745;BMP180;66104;45.456;11.064;2023-02-25T00:13:20;99543.80;;;11.90
68745;BMP180;66104;45.456;11.064;2023-02-25T00:15:57;99538.40;;;12.00
68745;BMP180;66104;45.456;11.064;2023-02-25T00:18:34;99534.60;;;12.00
68745;BMP180;66104;45.456;11.064;2023-02-25T00:21:12;99532.40;;;12.00
68745;BMP180;66104;45.456;11.064;2023-02-25T00:23:51;99526.40;;;12.10
68745;BMP180;66104;45.456;11.064;2023-02-25T00:26:36;99519.00;;;12.00
68745;BMP180;66104;45.456;11.064;2023-02-25T00:29:13;99515.60;;;12.00
68745;BMP180;66104;45.456;11.064;2023-02-25T00:31:51;99509.40;;;12.00
68745;BMP180;66104;45.456;11.064;2023-02-25T00:34:28;99508.00;;;11.90
68745;BMP180;66104;45.456;11.064;2023-02-25T00:37:04;99508.20;;;11.90
68745;BMP180;66104;45.456;11.064;2023-02-25T00:39:41;99505.40;;;11.90
68745;BMP180;66104;45.456;11.064;2023-02-25T00:42:19;99493.80;;;11.90
68745;BMP180;66104;45.456;11.064;2023-02-25T00:44:55;99492.00;;;11.88
68745;BMP180;66104;45.456;11.064;2023-02-25T00:47:31;99491.20;;;11.80
68745;BMP180;66104;45.456;11.064;2023-02-25T00:50:11;99482.20;;;11.72
68745;BMP180;66104;45.456;11.064;2023-02-25T00:52:49;99484.40;;;11.70
68745;BMP180;66104;45.456;11.064;2023-02-25T00:55:26;99475.00;;;11.70
68745;BMP180;66104;45.456;11.064;2023-02-25T00:58:05;99471.40;;;11.70
68745;BMP180;66104;45.456;11.064;2023-02-25T01:00:42;99460.00;;;11.70
68745;BMP180;66104;45.456;11.064;2023-02-25T01:03:24;99453.20;;;11.70
68745;BMP180;66104;45.456;11.064;2023-02-25T01:06:02;99443.60;;;11.60
68745;BMP180;66104;45.456;11.064;2023-02-25T01:08:40;99441.40;;;11.60
68745;BMP180;66104;45.456;11.064;2023-02-25T01:11:19;99432.40;;;11.50
68745;BMP180;66104;45.456;11.064;2023-02-25T01:14:00;99429.40;;;11.46
68745;BMP180;66104;45.456;11.064;2023-02-25T01:16:37;99421.80;;;11.50
68745;BMP180;66104;45.456;11.064;2023-02-25T01:19:18;99412.40;;;11.40
68745;BMP180;66104;45.456;11.064;2023-02-25T01:21:58;99413.40;;;11.40
68745;BMP180;66104;45.456;11.064;2023-02-25T01:24:37;99410.60;;;11.40
68745;BMP180;66104;45.456;11.064;2023-02-25T01:27:14;99408.60;;;11.30
68745;BMP180;66104;45.456;11.064;2023-02-25T01:29:50;99408.40;;;11.30
68745;BMP180;66104;45.456;11.064;2023-02-25T01:32:26;99403.60;;;11.20
68745;BMP180;66104;45.456;11.064;2023-02-25T01:35:05;99392.80;;;11.20
68745;BMP180;66104;45.456;11.064;2023-02-25T01:37:42;99389.80;;;11.20
68745;BMP180;66104;45.456;11.064;2023-02-25T01:40:21;99386.00;;;11.20
68745;BMP180;66104;45.456;11.064;2023-02-25T01:42:58;99378.40;;;11.10
68745;BMP180;66104;45.456;11.064;2023-02-25T01:45:38;99374.60;;;11.10
68745;BMP180;66104;45.456;11.064;2023-02-25T01:48:21;99369.00;;;11.10
68745;BMP180;66104;45.456;11.064;2023-02-25T01:51:03;99364.80;;;11.00
68745;BMP180;66104;45.456;11.064;2023-02-25T01:53:45;99358.00;;;10.90
68745;BMP180;66104;45.456;11.064;2023-02-25T01:56:24;99347.80;;;10.90
68745;BMP180;66104;45.456;11.064;2023-02-25T01:59:01;99345.40;;;10.80
68745;BMP180;66104;45.456;11.064;2023-02-25T02:01:39;99342.80;;;10.80
68745;BMP180;66104;45.456;11.064;2023-02-25T02:04:18;99332.80;;;10.80
68745;BMP180;66104;45.456;11.064;2023-02-25T02:06:55;99329.80;;;10.80
68745;BMP180;66104;45.456;11.064;2023-02-25T02:09:32;99325.60;;;10.78
68745;BMP180;66104;45.456;11.064;2023-02-25T02:12:11;99319.40;;;10.70
68745;BMP180;66104;45.456;11.064;2023-02-25T02:14:47;99322.00;;;10.70
68745;BMP180;66104;45.456;11.064;2023-02-25T02:17:28;99319.40;;;10.60
68745;BMP180;66104;45.456;11.064;2023-02-25T02:20:18;99313.40;;;10.60
68745;BMP180;66104;45.456;11.064;2023-02-25T02:23:33;99303.00;;;10.60
68745;BMP180;66104;45.456;11.064;2023-02-25T02:26:51;99292.80;;;10.60
68745;BMP180;66104;45.456;11.064;2023-02-25T02:32:44;99292.40;;;10.60
68745;BMP180;66104;45.456;11.064;2023-02-25T02:35:34;99289.40;;;10.54
68745;BMP180;66104;45.456;11.064;2023-02-25T02:38:22;99290.20;;;10.50
68745;BMP180;66104;45.456;11.064;2023-02-25T02:41:09;99293.40;;;10.44
68745;BMP180;66104;45.456;11.064;2023-02-25T02:43:57;99294.60;;;10.40
68745;BMP180;66104;45.456;11.064;2023-02-25T02:46:41;99298.80;;;10.30
68745;BMP180;66104;45.456;11.064;2023-02-25T02:49:26;99298.80;;;10.20
68745;BMP180;66104;45.456;11.064;2023-02-25T02:52:11;99299.40;;;10.20
68745;BMP180;66104;45.456;11.064;2023-02-25T02:54:55;99299.40;;;10.20
68745;BMP180;66104;45.456;11.064;2023-02-25T02:57:38;99296.80;;;10.20
68745;BMP180;66104;45.456;11.064;2023-02-25T03:00:23;99304.60;;;10.20
68745;BMP180;66104;45.456;11.064;2023-02-25T03:03:09;99298.80;;;10.20
68745;BMP180;66104;45.456;11.064;2023-02-25T03:05:52;99293.40;;;10.20
68745;BMP180;66104;45.456;11.064;2023-02-25T03:08:38;99292.80;;;10.12
68745;BMP180;66104;45.456;11.064;2023-02-25T03:11:17;99290.20;;;10.00
68745;BMP180;66104;45.456;11.064;2023-02-25T03:13:54;99283.20;;;9.80
68745;BMP180;66104;45.456;11.064;2023-02-25T03:16:37;99285.80;;;9.74
68745;BMP180;66104;45.456;11.064;2023-02-25T03:19:19;99288.20;;;9.80
68745;BMP180;66104;45.456;11.064;2023-02-25T03:22:03;99290.60;;;9.90
68745;BMP180;66104;45.456;11.064;2023-02-25T03:24:56;99278.80;;;9.90
68745;BMP180;66104;45.456;11.064;2023-02-25T03:27:38;99274.00;;;10.00
68745;BMP180;66104;45.456;11.064;2023-02-25T03:30:29;99273.60;;;10.00
68745;BMP180;66104;45.456;11.064;2023-02-25T03:33:13;99271.40;;;10.00
68745;BMP180;66104;45.456;11.064;2023-02-25T03:35:54;99270.80;;;10.00
68745;BMP180;66104;45.456;11.064;2023-02-25T03:38:33;99269.20;;;9.90
68745;BMP180;66104;45.456;11.064;2023-02-25T03:41:12;99268.60;;;9.90
68745;BMP180;66104;45.456;11.064;2023-02-25T03:43:54;99269.00;;;9.90
68745;BMP180;66104;45.456;11.064;2023-02-25T03:46:33;99277.40;;;9.90
68745;BMP180;66104;45.456;11.064;2023-02-25T03:49:14;99270.00;;;9.88
68745;BMP180;66104;45.456;11.064;2023-02-25T03:51:54;99263.60;;;9.90
68745;BMP180;66104;45.456;11.064;2023-02-25T03:54:32;99265.60;;;9.90
68745;BMP180;66104;45.456;11.064;2023-02-25T03:57:09;99264.00;;;10.00
68745;BMP180;66104;45.456;11.064;2023-02-25T03:59:46;99255.60;;;10.00
68745;BMP180;66104;45.456;11.064;2023-02-25T04:02:26;99256.00;;;10.00
68745;BMP180;66104;45.456;11.064;2023-02-25T04:05:03;99253.00;;;10.00
68745;BMP180;66104;45.456;11.064;2023-02-25T04:07:39;99258.00;;;10.00
68745;BMP180;66104;45.456;11.064;2023-02-25T04:10:18;99258.80;;;10.00
68745;BMP180;66104;45.456;11.064;2023-02-25T04:12:55;99258.80;;;10.00
68745;BMP180;66104;45.456;11.064;2023-02-25T04:15:33;99253.40;;;10.00
68745;BMP180;66104;45.456;11.064;2023-02-25T04:18:10;99253.20;;;10.00
68745;BMP180;66104;45.456;11.064;2023-02-25T04:20:47;99258.00;;;10.10
68745;BMP180;66104;45.456;11.064;2023-02-25T04:23:23;99264.60;;;10.10
68745;BMP180;66104;45.456;11.064;2023-02-25T04:26:00;99263.60;;;10.10
68745;BMP180;66104;45.456;11.064;2023-02-25T04:28:37;99266.80;;;10.10
68745;BMP180;66104;45.456;11.064;2023-02-25T04:31:13;99261.60;;;10.10
68745;BMP180;66104;45.456;11.064;2023-02-25T04:33:49;99260.00;;;10.10
68745;BMP180;66104;45.456;11.064;2023-02-25T04:36:31;99262.00;;;10.10
68745;BMP180;66104;45.456;11.064;2023-02-25T04:39:09;99266.20;;;10.10
68745;BMP180;66104;45.456;11.064;2023-02-25T04:41:46;99265.00;;;10.10
68745;BMP180;66104;45.456;11.064;2023-02-25T04:44:22;99265.60;;;10.10
68745;BMP180;66104;45.456;11.064;2023-02-25T04:46:59;99260.20;;;10.10
68745;BMP180;66104;45.456;11.064;2023-02-25T04:49:35;99263.00;;;10.04
68745;BMP180;66104;45.456;11.064;2023-02-25T04:52:18;99265.00;;;10.10
68745;BMP180;66104;45.456;11.064;2023-02-25T04:54:55;99261.00;;;10.10
68745;BMP180;66104;45.456;11.064;2023-02-25T04:57:32;99264.60;;;10.16
68745;BMP180;66104;45.456;11.064;2023-02-25T05:00:19;99254.20;;;10.14
68745;BMP180;66104;45.456;11.064;2023-02-25T05:02:57;99253.40;;;10.20
68745;BMP180;66104;45.456;11.064;2023-02-25T05:05:35;99246.80;;;10.18
68745;BMP180;66104;45.456;11.064;2023-02-25T05:08:11;99240.80;;;10.20
68745;BMP180;66104;45.456;11.064;2023-02-25T05:10:48;99242.20;;;10.10
68745;BMP180;66104;45.456;11.064;2023-02-25T05:13:23;99249.00;;;10.12
68745;BMP180;66104;45.456;11.064;2023-02-25T05:16:11;99254.40;;;10.10
68745;BMP180;66104;45.456;11.064;2023-02-25T05:18:49;99257.80;;;10.10
68745;BMP180;66104;45.456;11.064;2023-02-25T05:21:26;99248.60;;;10.10
68745;BMP180;66104;45.456;11.064;2023-02-25T05:24:03;99243.20;;;10.10
68745;BMP180;66104;45.456;11.064;2023-02-25T05:26:40;99240.00;;;10.10
68745;BMP180;66104;45.456;11.064;2023-02-25T05:29:18;99231.80;;;10.10
68745;BMP180;66104;45.456;11.064;2023-02-25T05:31:55;99230.80;;;10.10
68745;BMP180;66104;45.456;11.064;2023-02-25T05:34:32;99229.80;;;10.00
68745;BMP180;66104;45.456;11.064;2023-02-25T05:37:09;99229.00;;;10.06
68745;BMP180;66104;45.456;11.064;2023-02-25T05:42:54;99217.00;;;10.00
68745;BMP180;66104;45.456;11.064;2023-02-25T05:45:31;99213.60;;;10.00
68745;BMP180;66104;45.456;11.064;2023-02-25T05:48:08;99210.40;;;10.00
68745;BMP180;66104;45.456;11.064;2023-02-25T05:50:46;99203.40;;;9.90
68745;BMP180;66104;45.456;11.064;2023-02-25T05:53:23;99199.00;;;9.90
68745;BMP180;66104;45.456;11.064;2023-02-25T05:56:01;99195.80;;;9.90
68745;BMP180;66104;45.456;11.064;2023-02-25T05:58:38;99193.00;;;9.90
68745;BMP180;66104;45.456;11.064;2023-02-25T06:01:20;99197.40;;;9.80
68745;BMP180;66104;45.456;11.064;2023-02-25T06:03:57;99195.40;;;9.70
68745;BMP180;66104;45.456;11.064;2023-02-25T06:06:34;99189.80;;;9.70
68745;BMP180;66104;45.456;11.064;2023-02-25T06:09:12;99192.60;;;9.70
68745;BMP180;66104;45.456;11.064;2023-02-25T06:11:52;99189.60;;;9.60
68745;BMP180;66104;45.456;11.064;2023-02-25T06:14:28;99190.60;;;9.60
68745;BMP180;66104;45.456;11.064;2023-02-25T06:17:05;99182.00;;;9.60
68745;BMP180;66104;45.456;11.064;2023-02-25T06:19:42;99178.00;;;9.60
68745;BMP180;66104;45.456;11.064;2023-02-25T06:22:20;99177.40;;;9.54
68745;BMP180;66104;45.456;11.064;2023-02-25T06:24:57;99179.20;;;9.50
68745;BMP180;66104;45.456;11.064;2023-02-25T06:27:33;99180.80;;;9.50
68745;BMP180;66104;45.456;11.064;2023-02-25T06:30:19;99177.60;;;9.50
68745;BMP180;66104;45.456;11.064;2023-02-25T06:32:57;99180.80;;;9.50
68745;BMP180;66104;45.456;11.064;2023-02-25T06:35:34;99188.40;;;9.52
68745;BMP180;66104;45.456;11.064;2023-02-25T06:38:13;99192.60;;;9.60
68745;BMP180;66104;45.456;11.064;2023-02-25T06:40:51;99196.80;;;9.58
68745;BMP180;66104;45.456;11.064;2023-02-25T06:43:29;99191.60;;;9.50
68745;BMP180;66104;45.456;11.064;2023-02-25T06:46:11;99191.00;;;9.50
68745;BMP180;66104;45.456;11.064;2023-02-25T06:48:52;99191.40;;;9.50
68745;BMP180;66104;45.456;11.064;2023-02-25T06:51:28;99190.80;;;9.50
68745;BMP180;66104;45.456;11.064;2023-02-25T06:54:07;99180.40;;;9.50
68745;BMP180;66104;45.456;11.064;2023-02-25T06:56:45;99184.60;;;9.50
68745;BMP180;66104;45.456;11.064;2023-02-25T06:59:21;99180.60;;;9.60
68745;BMP180;66104;45.456;11.064;2023-02-25T07:01:58;99181.20;;;9.58
68745;BMP180;66104;45.456;11.064;2023-02-25T07:07:12;99185.60;;;9.80
68745;BMP180;66104;45.456;11.064;2023-02-25T07:09:52;99189.40;;;9.80
68745;BMP180;66104;45.456;11.064;2023-02-25T07:12:29;99188.40;;;9.90
68745;BMP180;66104;45.456;11.064;2023-02-25T07:15:09;99189.20;;;10.00
68745;BMP180;66104;45.456;11.064;2023-02-25T07:17:48;99190.60;;;10.10
68745;BMP180;66104;45.456;11.064;2023-02-25T07:20:28;99185.00;;;10.22
68745;BMP180;66104;45.456;11.064;2023-02-25T07:23:06;99178.60;;;10.30
68745;BMP180;66104;45.456;11.064;2023-02-25T07:25:44;99177.60;;;10.40
68745;BMP180;66104;45.456;11.064;2023-02-25T07:28:23;99179.60;;;10.46
68745;BMP180;66104;45.456;11.064;2023-02-25T07:31:00;99164.80;;;10.52
68745;BMP180;66104;45.456;11.064;2023-02-25T07:33:38;99150.40;;;10.68
68745;BMP180;66104;45.456;11.064;2023-02-25T07:36:16;99146.20;;;10.70
68745;BMP180;66104;45.456;11.064;2023-02-25T07:38:53;99149.00;;;10.80
68745;BMP180;66104;45.456;11.064;2023-02-25T07:41:30;99150.00;;;11.00
68745;BMP180;66104;45.456;11.064;2023-02-25T07:44:08;99146.40;;;11.10
68745;BMP180;66104;45.456;11.064;2023-02-25T07:46:46;99137.40;;;11.20
68745;BMP180;66104;45.456;11.064;2023-02-25T07:49:23;99133.60;;;11.36
68745;BMP180;66104;45.456;11.064;2023-02-25T07:52:00;99125.40;;;11.50
68745;BMP180;66104;45.456;11.064;2023-02-25T07:54:37;99122.40;;;11.60
68745;BMP180;66104;45.456;11.064;2023-02-25T07:57:14;99122.00;;;11.76
68745;BMP180;66104;45.456;11.064;2023-02-25T07:59:51;99115.00;;;11.90
68745;BMP180;66104;45.456;11.064;2023-02-25T08:02:28;99114.80;;;12.00
68745;BMP180;66104;45.456;11.064;2023-02-25T08:05:06;99114.60;;;12.12
68745;BMP180;66104;45.456;11.064;2023-02-25T08:07:44;99106.40;;;12.22
68745;BMP180;66104;45.456;11.064;2023-02-25T08:10:23;99099.60;;;12.30
68745;BMP180;66104;45.456;11.064;2023-02-25T08:13:00;99097.40;;;12.40
68745;BMP180;66104;45.456;11.064;2023-02-25T08:15:39;99099.60;;;12.40
68745;BMP180;66104;45.456;11.064;2023-02-25T08:18:20;99092.80;;;12.40
68745;BMP180;66104;45.456;11.064;2023-02-25T08:20:58;99089.00;;;12.32
68745;BMP180;66104;45.456;11.064;2023-02-25T08:23:36;99088.80;;;12.30
68745;BMP180;66104;45.456;11.064;2023-02-25T08:26:13;99087.60;;;12.30
68745;BMP180;66104;45.456;11.064;2023-02-25T08:28:52;99084.00;;;12.30
68745;BMP180;66104;45.456;11.064;2023-02-25T08:31:28;99079.60;;;12.30
68745;BMP180;66104;45.456;11.064;2023-02-25T08:34:05;99082.40;;;12.30
68745;BMP180;66104;45.456;11.064;2023-02-25T08:36:43;99075.40;;;12.30
68745;BMP180;66104;45.456;11.064;2023-02-25T08:39:21;99077.00;;;12.34
68745;BMP180;66104;45.456;11.064;2023-02-25T08:41:59;99075.20;;;12.40
68745;BMP180;66104;45.456;11.064;2023-02-25T08:44:35;99079.00;;;12.40
68745;BMP180;66104;45.456;11.064;2023-02-25T08:47:11;99071.60;;;12.40
68745;BMP180;66104;45.456;11.064;2023-02-25T08:49:48;99069.20;;;12.44
68745;BMP180;66104;45.456;11.064;2023-02-25T08:52:26;99063.80;;;12.50
68745;BMP180;66104;45.456;11.064;2023-02-25T08:55:10;99061.60;;;12.60
68745;BMP180;66104;45.456;11.064;2023-02-25T08:57:48;99058.80;;;12.60
68745;BMP180;66104;45.456;11.064;2023-02-25T09:00:29;99059.00;;;12.64
68745;BMP180;66104;45.456;11.064;2023-02-25T09:03:06;99058.20;;;12.70
68745;BMP180;66104;45.456;11.064;2023-02-25T09:05:42;99061.20;;;12.80
68745;BMP180;66104;45.456;11.064;2023-02-25T09:08:18;99061.80;;;12.80
68745;BMP180;66104;45.456;11.064;2023-02-25T09:10:55;99062.00;;;12.90
68745;BMP180;66104;45.456;11.064;2023-02-25T09:13:33;99060.40;;;13.00
68745;BMP180;66104;45.456;11.064;2023-02-25T09:16:12;99060.00;;;13.00
68745;BMP180;66104;45.456;11.064;2023-02-25T09:18:51;99054.80;;;13.00
68745;BMP180;66104;45.456;11.064;2023-02-25T09:21:28;99054.20;;;13.06
68745;BMP180;66104;45.456;11.064;2023-02-25T09:24:07;99049.80;;;13.10
68745;BMP180;66104;45.456;11.064;2023-02-25T09:26:44;99046.80;;;13.10
68745;BMP180;66104;45.456;11.064;2023-02-25T09:29:21;99049.20;;;13.20
68745;BMP180;66104;45.456;11.064;2023-02-25T09:31:58;99043.20;;;13.20
68745;BMP180;66104;45.456;11.064;2023-02-25T09:34:36;99033.60;;;13.20
68745;BMP180;66104;45.456;11.064;2023-02-25T09:37:12;99036.00;;;13.30
68745;BMP180;66104;45.456;11.064;2023-02-25T09:39:49;99036.60;;;13.30
68745;BMP180;66104;45.456;11.064;2023-02-25T09:42:32;99036.00;;;13.40
68745;BMP180;66104;45.456;11.064;2023-02-25T09:45:19;99036.40;;;13.40
68745;BMP180;66104;45.456;11.064;2023-02-25T09:48:03;99035.40;;;13.50
68745;BMP180;66104;45.456;11.064;2023-02-25T09:50:46;99032.80;;;13.60
68745;BMP180;66104;45.456;11.064;2023-02-25T09:53:28;99026.20;;;13.60
68745;BMP180;66104;45.456;11.064;2023-02-25T09:56:09;99022.60;;;13.62
68745;BMP180;66104;45.456;11.064;2023-02-25T09:58:55;99025.60;;;13.70
68745;BMP180;66104;45.456;11.064;2023-02-25T10:01:39;99025.20;;;13.72
68745;BMP180;66104;45.456;11.064;2023-02-25T10:04:26;99034.00;;;13.80
68745;BMP180;66104;45.456;11.064;2023-02-25T10:07:17;99031.80;;;13.80
68745;BMP180;66104;45.456;11.064;2023-02-25T10:10:05;99033.60;;;13.86
68745;BMP180;66104;45.456;11.064;2023-02-25T10:12:53;99037.80;;;13.90
68745;BMP180;66104;45.456;11.064;2023-02-25T10:15:54;99033.80;;;13.90
68745;BMP180;66104;45.456;11.064;2023-02-25T10:18:55;99036.60;;;14.00
68745;BMP180;66104;45.456;11.064;2023-02-25T10:24:55;99035.00;;;14.10
68745;BMP180;66104;45.456;11.064;2023-02-25T10:27:39;99031.60;;;14.20
68745;BMP180;66104;45.456;11.064;2023-02-25T10:30:28;99026.00;;;14.28
68745;BMP180;66104;45.456;11.064;2023-02-25T10:33:15;99018.00;;;14.30
68745;BMP180;66104;45.456;11.064;2023-02-25T10:36:05;99020.00;;;14.40
68745;BMP180;66104;45.456;11.064;2023-02-25T10:38:46;99021.00;;;14.50
68745;BMP180;66104;45.456;11.064;2023-02-25T10:41:24;99023.60;;;14.60
68745;BMP180;66104;45.456;11.064;2023-02-25T10:44:00;99019.60;;;14.68
68745;BMP180;66104;45.456;11.064;2023-02-25T10:46:44;99010.00;;;14.70
68745;BMP180;66104;45.456;11.064;2023-02-25T10:49:25;99008.40;;;14.80
68745;BMP180;66104;45.456;11.064;2023-02-25T10:52:05;99006.60;;;14.80
68745;BMP180;66104;45.456;11.064;2023-02-25T10:54:51;99007.80;;;14.84
68745;BMP180;66104;45.456;11.064;2023-02-25T10:57:38;99008.60;;;14.90
68745;BMP180;66104;45.456;11.064;2023-02-25T11:00:28;99004.20;;;14.90
68745;BMP180;66104;45.456;11.064;2023-02-25T11:03:13;99004.80;;;15.00
68745;BMP180;66104;45.456;11.064;2023-02-25T11:05:51;99000.00;;;15.00
68745;BMP180;66104;45.456;11.064;2023-02-25T11:08:32;98995.60;;;15.10
68745;BMP180;66104;45.456;11.064;2023-02-25T11:11:18;98997.80;;;15.10
68745;BMP180;66104;45.456;11.064;2023-02-25T11:14:05;99003.40;;;15.18
68745;BMP180;66104;45.456;11.064;2023-02-25T11:16:44;99000.40;;;15.20
68745;BMP180;66104;45.456;11.064;2023-02-25T11:19:26;99000.20;;;15.20
68745;BMP180;66104;45.456;11.064;2023-02-25T11:22:15;98993.40;;;15.30
68745;BMP180;66104;45.456;11.064;2023-02-25T11:25:00;98994.80;;;15.30
68745;BMP180;66104;45.456;11.064;2023-02-25T11:27:42;98996.40;;;15.40
68745;BMP180;66104;45.456;11.064;2023-02-25T11:30:28;98995.20;;;15.40
68745;BMP180;66104;45.456;11.064;2023-02-25T11:33:17;98993.40;;;15.50
68745;BMP180;66104;45.456;11.064;2023-02-25T11:36:02;98988.40;;;15.60
68745;BMP180;66104;45.456;11.064;2023-02-25T11:38:41;98983.00;;;15.70
68745;BMP180;66104;45.456;11.064;2023-02-25T11:41:24;98979.00;;;15.80
68745;BMP180;66104;45.456;11.064;2023-02-25T11:44:24;98972.60;;;15.90
68745;BMP180;66104;45.456;11.064;2023-02-25T11:47:22;98971.00;;;16.00
68745;BMP180;66104;45.456;11.064;2023-02-25T11:50:20;98967.00;;;16.08
68745;BMP180;66104;45.456;11.064;2023-02-25T11:53:08;98964.20;;;16.10
68745;BMP180;66104;45.456;11.064;2023-02-25T11:56:01;98959.40;;;16.20
68745;BMP180;66104;45.456;11.064;2023-02-25T11:58:51;98959.20;;;16.30
68745;BMP180;66104;45.456;11.064;2023-02-25T12:01:51;98960.60;;;16.40
68745;BMP180;66104;45.456;11.064;2023-02-25T12:05:14;98949.20;;;16.52
68745;BMP180;66104;45.456;11.064;2023-02-25T12:08:24;98940.40;;;16.68
68745;BMP180;66104;45.456;11.064;2023-02-25T12:15:20;98925.00;;;16.90
68745;BMP180;66104;45.456;11.064;2023-02-25T12:22:15;98915.20;;;17.00
68745;BMP180;66104;45.456;11.064;2023-02-25T12:25:14;98903.80;;;17.10
68745;BMP180;66104;45.456;11.064;2023-02-25T12:31:52;98890.80;;;17.30
68745;BMP180;66104;45.456;11.064;2023-02-25T12:41:34;98882.20;;;17.70
68745;BMP180;66104;45.456;11.064;2023-02-25T12:48:11;98867.00;;;17.90
68745;BMP180;66104;45.456;11.064;2023-02-25T12:51:20;98870.00;;;17.90
68745;BMP180;66104;45.456;11.064;2023-02-25T12:54:18;98871.60;;;17.90
68745;BMP180;66104;45.456;11.064;2023-02-25T12:57:36;98867.60;;;17.90
68745;BMP180;66104;45.456;11.064;2023-02-25T13:00:50;98858.40;;;17.80
68745;BMP180;66104;45.456;11.064;2023-02-25T13:03:58;98855.20;;;17.70
68745;BMP180;66104;45.456;11.064;2023-02-25T13:07:16;98856.40;;;17.70
68745;BMP180;66104;45.456;11.064;2023-02-25T13:10:23;98853.20;;;17.60
68745;BMP180;66104;45.456;11.064;2023-02-25T13:13:47;98846.40;;;17.60
68745;BMP180;66104;45.456;11.064;2023-02-25T13:16:41;98841.40;;;17.50
68745;BMP180;66104;45.456;11.064;2023-02-25T13:22:55;98842.20;;;17.30
68745;BMP180;66104;45.456;11.064;2023-02-25T13:25:56;98834.60;;;17.20
68745;BMP180;66104;45.456;11.064;2023-02-25T13:28:59;98833.60;;;17.20
68745;BMP180;66104;45.456;11.064;2023-02-25T13:31:52;98839.40;;;17.20
68745;BMP180;66104;45.456;11.064;2023-02-25T13:34:45;98845.00;;;17.10
68745;BMP180;66104;45.456;11.064;2023-02-25T13:37:42;98844.00;;;17.00
68745;BMP180;66104;45.456;11.064;2023-02-25T13:40:46;98830.60;;;16.90
68745;BMP180;66104;45.456;11.064;2023-02-25T13:43:48;98828.40;;;16.80
68745;BMP180;66104;45.456;11.064;2023-02-25T13:50:28;98815.60;;;16.70
68745;BMP180;66104;45.456;11.064;2023-02-25T13:53:31;98818.40;;;16.70
68745;BMP180;66104;45.456;11.064;2023-02-25T13:56:48;98820.60;;;16.70
68745;BMP180;66104;45.456;11.064;2023-02-25T13:59:56;98816.20;;;16.70
68745;BMP180;66104;45.456;11.064;2023-02-25T14:03:12;98806.40;;;16.70
68745;BMP180;66104;45.456;11.064;2023-02-25T14:06:16;98804.20;;;16.70
68745;BMP180;66104;45.456;11.064;2023-02-25T14:09:23;98803.60;;;16.70
68745;BMP180;66104;45.456;11.064;2023-02-25T14:12:18;98802.00;;;16.70
68745;BMP180;66104;45.456;11.064;2023-02-25T14:15:26;98798.40;;;16.70
68745;BMP180;66104;45.456;11.064;2023-02-25T14:18:30;98796.20;;;16.70
68745;BMP180;66104;45.456;11.064;2023-02-25T14:24:40;98793.00;;;16.70
68745;BMP180;66104;45.456;11.064;2023-02-25T14:27:33;98784.80;;;16.70
68745;BMP180;66104;45.456;11.064;2023-02-25T14:30:24;98782.80;;;16.70
68745;BMP180;66104;45.456;11.064;2023-02-25T14:33:33;98784.00;;;16.70
68745;BMP180;66104;45.456;11.064;2023-02-25T14:39:58;98782.20;;;16.60
68745;BMP180;66104;45.456;11.064;2023-02-25T14:46:00;98770.60;;;16.52
68745;BMP180;66104;45.456;11.064;2023-02-25T14:48:49;98773.80;;;16.50
68745;BMP180;66104;45.456;11.064;2023-02-25T14:52:02;98775.60;;;16.50
68745;BMP180;66104;45.456;11.064;2023-02-25T14:58:30;98774.20;;;16.50
68745;BMP180;66104;45.456;11.064;2023-02-25T15:01:44;98776.20;;;16.50
68745;BMP180;66104;45.456;11.064;2023-02-25T15:07:47;98775.60;;;16.46
68745;BMP180;66104;45.456;11.064;2023-02-25T15:10:42;98777.60;;;16.40
68745;BMP180;66104;45.456;11.064;2023-02-25T15:13:53;98779.80;;;16.40
68745;BMP180;66104;45.456;11.064;2023-02-25T15:20:30;98782.40;;;16.30
68745;BMP180;66104;45.456;11.064;2023-02-25T15:23:16;98779.40;;;16.30
68745;BMP180;66104;45.456;11.064;2023-02-25T15:26:20;98784.00;;;16.30
68745;BMP180;66104;45.456;11.064;2023-02-25T15:29:01;98787.00;;;16.30
68745;BMP180;66104;45.456;11.064;2023-02-25T15:31:39;98791.00;;;16.30
68745;BMP180;66104;45.456;11.064;2023-02-25T15:34:38;98795.00;;;16.26
68745;BMP180;66104;45.456;11.064;2023-02-25T15:40:57;98799.80;;;16.20
68745;BMP180;66104;45.456;11.064;2023-02-25T15:43:50;98808.40;;;16.10
68745;BMP180;66104;45.456;11.064;2023-02-25T15:46:47;98808.80;;;16.10
68745;BMP180;66104;45.456;11.064;2023-02-25T15:49:34;98812.20;;;16.10
68745;BMP180;66104;45.456;11.064;2023-02-25T15:52:14;98816.00;;;16.10
68745;BMP180;66104;45.456;11.064;2023-02-25T15:55:34;98818.40;;;16.06
68745;BMP180;66104;45.456;11.064;2023-02-25T15:58:58;98814.20;;;16.00
68745;BMP180;66104;45.456;11.064;2023-02-25T16:01:47;98819.60;;;16.00
68745;BMP180;66104;45.456;11.064;2023-02-25T16:04:59;98827.80;;;16.00
68745;BMP180;66104;45.456;11.064;2023-02-25T16:07:40;98827.40;;;15.90
68745;BMP180;66104;45.456;11.064;2023-02-25T16:10:29;98822.80;;;15.90
68745;BMP180;66104;45.456;11.064;2023-02-25T16:13:14;98824.60;;;15.90
68745;BMP180;66104;45.456;11.064;2023-02-25T16:15:56;98834.60;;;15.90
68745;BMP180;66104;45.456;11.064;2023-02-25T16:18:36;98833.20;;;15.80
68745;BMP180;66104;45.456;11.064;2023-02-25T16:21:24;98836.00;;;15.80
68745;BMP180;66104;45.456;11.064;2023-02-25T16:24:02;98832.60;;;15.80
68745;BMP180;66104;45.456;11.064;2023-02-25T16:27:00;98831.60;;;15.78
68745;BMP180;66104;45.456;11.064;2023-02-25T16:30:05;98828.80;;;15.70
68745;BMP180;66104;45.456;11.064;2023-02-25T16:32:58;98827.00;;;15.70
68745;BMP180;66104;45.456;11.064;2023-02-25T16:35:43;98832.00;;;15.68
68745;BMP180;66104;45.456;11.064;2023-02-25T16:38:37;98832.20;;;15.60
68745;BMP180;66104;45.456;11.064;2023-02-25T16:41:18;98835.00;;;15.60
68745;BMP180;66104;45.456;11.064;2023-02-25T16:44:03;98838.60;;;15.60